createdAt,value
2019-04-21T00:01:26.514Z,96895.02
2019-04-21T00:03:57.525Z,96893.86
2019-04-21T00:06:43.947Z,96893.20
2019-04-21T00:09:11.433Z,96894.58
2019-04-21T00:11:35.593Z,96889.78
2019-04-21T00:13:56.216Z,96887.53
2019-04-21T00:16:17.197Z,96886.85
2019-04-21T00:18:53.443Z,96891.20
2019-04-21T00:21:23.243Z,96884.75
2019-04-21T00:23:56.199Z,96887.72
2019-04-21T00:26:29.067Z,96880.47
2019-04-21T00:28:59.474Z,96868.44
2019-04-21T00:31:21.811Z,96866.91
2019-04-21T00:33:35.603Z,96872.31
2019-04-21T00:36:09.294Z,96857.20
2019-04-21T00:38:58.810Z,96860.78
2019-04-21T00:41:19.064Z,96860.96
2019-04-21T00:43:41.266Z,96858.98
2019-04-21T00:46:03.251Z,96850.73
2019-04-21T00:48:43.982Z,96848.70
2019-04-21T00:51:25.192Z,96847.03
2019-04-21T00:53:51.149Z,96839.00
2019-04-21T00:56:15.598Z,96839.94
2019-04-21T00:58:48.476Z,96840.33
2019-04-21T01:01:12.158Z,96833.88
2019-04-21T01:03:46.240Z,96834.63
2019-04-21T01:06:11.415Z,96833.66
2019-04-21T01:08:36.024Z,96827.15
2019-04-21T01:11:02.093Z,96826.89
2019-04-21T01:13:36.262Z,96825.57
2019-04-21T01:16:08.542Z,96828.92
2019-04-21T01:18:31.331Z,96822.80
2019-04-21T01:20:37.537Z,96823.17
2019-04-21T01:23:04.341Z,96830.37
2019-04-21T01:25:39.341Z,96827.52
2019-04-21T01:28:18.873Z,96822.25
2019-04-21T01:30:50.239Z,96819.16
2019-04-21T01:33:21.594Z,96817.05
2019-04-21T01:35:44.057Z,96815.27
2019-04-21T01:38:14.308Z,96812.20
2019-04-21T01:41:00.643Z,96806.95
2019-04-21T01:43:11.527Z,96807.84
2019-04-21T01:45:36.985Z,96809.63
2019-04-21T01:48:01.187Z,96808.56
2019-04-21T01:50:36.546Z,96800.78
2019-04-21T01:53:15.576Z,96796.33
2019-04-21T01:55:54.377Z,96794.33
2019-04-21T01:58:19.377Z,96792.30
2019-04-21T02:00:51.874Z,96793.83
2019-04-21T02:03:45.387Z,96793.50
2019-04-21T02:05:59.654Z,96789.51
2019-04-21T02:08:18.247Z,96792.34
2019-04-21T02:10:54.919Z,96789.31
2019-04-21T02:13:16.873Z,96785.50
2019-04-21T02:15:54.427Z,96785.81
2019-04-21T02:18:13.473Z,96787.41
2019-04-21T02:20:31.756Z,96784.09
2019-04-21T02:25:40.014Z,96786.15
2019-04-21T02:28:14.814Z,96786.92
2019-04-21T02:30:56.918Z,96778.23
2019-04-21T02:33:18.638Z,96780.83
2019-04-21T02:38:30.642Z,96776.65
2019-04-21T02:40:51.491Z,96777.36
2019-04-21T02:45:43.322Z,96773.18
2019-04-21T02:55:30.513Z,96763.43
2019-04-21T03:00:36.710Z,96748.57
2019-04-21T03:03:13.583Z,96754.70
2019-04-21T03:05:58.712Z,96755.88
2019-04-21T03:10:59.212Z,96747.25
2019-04-21T03:13:29.835Z,96744.75
2019-04-21T03:15:59.195Z,96747.59
2019-04-21T03:18:26.392Z,96745.93
2019-04-21T03:20:54.918Z,96744.47
2019-04-21T03:25:51.986Z,96733.30
2019-04-21T03:28:20.131Z,96733.30
2019-04-21T03:31:11.581Z,96732.11
2019-04-21T03:38:16.645Z,96728.43
2019-04-21T03:40:37.903Z,96730.59
2019-04-21T03:43:07.874Z,96729.89
2019-04-21T03:48:05.217Z,96731.83
2019-04-21T03:50:33.770Z,96728.57
2019-04-21T03:53:06.838Z,96722.45
2019-04-21T04:03:49.199Z,96720.84
2019-04-21T04:06:03.916Z,96722.16
2019-04-21T04:08:36.671Z,96718.20
2019-04-21T04:13:34.183Z,96715.56
2019-04-21T04:18:23.453Z,96720.98
2019-04-21T04:23:10.219Z,96714.67
2019-04-21T04:25:37.477Z,96717.17
2019-04-21T04:30:43.654Z,96721.13
2019-04-21T04:33:12.856Z,96712.50
2019-04-21T04:35:48.558Z,96717.31
2019-04-21T04:38:07.023Z,96714.67
2019-04-21T04:40:48.941Z,96712.70
2019-04-21T04:43:19.226Z,96715.56
2019-04-21T04:53:12.032Z,96711.09
2019-04-21T04:55:39.091Z,96716.23
2019-04-21T05:03:05.521Z,96714.16
2019-04-21T05:06:32.698Z,96714.35
2019-04-21T05:08:52.946Z,96715.72
2019-04-21T05:11:20.671Z,96723.03
2019-04-21T05:13:51.168Z,96715.66
2019-04-21T05:16:13.758Z,96724.05
2019-04-21T05:18:36.752Z,96722.64
2019-04-21T05:21:18.886Z,96730.14
2019-04-21T05:23:18.101Z,96724.91
2019-04-21T05:25:42.410Z,96721.34
2019-04-21T05:28:08.836Z,96721.44
2019-04-21T05:31:09.096Z,96720.72
2019-04-21T05:33:53.234Z,96718.00
2019-04-21T05:36:37.923Z,96724.32
2019-04-21T05:39:18.821Z,96721.57
2019-04-21T05:41:41.988Z,96724.81
2019-04-21T05:44:27.994Z,96725.09
2019-04-21T05:47:05.954Z,96718.38
2019-04-21T05:49:26.694Z,96719.11
2019-04-21T05:51:55.751Z,96718.19
2019-04-21T05:54:52.858Z,96714.58
2019-04-21T05:56:59.759Z,96716.48
2019-04-21T05:59:29.343Z,96705.48
2019-04-21T06:02:07.457Z,96709.00
2019-04-21T06:04:38.464Z,96701.94
2019-04-21T06:07:00.362Z,96703.50
2019-04-21T06:09:27.413Z,96701.72
2019-04-21T06:11:51.413Z,96707.41
2019-04-21T06:14:21.733Z,96712.27
2019-04-21T06:16:55.647Z,96712.00
2019-04-21T06:19:29.303Z,96709.73
2019-04-21T06:21:44.764Z,96710.63
2019-04-21T06:24:15.997Z,96709.86
2019-04-21T06:27:00.134Z,96710.89
2019-04-21T06:29:18.506Z,96709.64
2019-04-21T06:34:15.183Z,96708.87
2019-04-21T06:39:41.654Z,96704.83
2019-04-21T06:41:49.173Z,96704.88
2019-04-21T06:46:43.783Z,96701.34
2019-04-21T06:49:28.136Z,96701.88
2019-04-21T06:51:38.952Z,96701.75
2019-04-21T06:54:09.174Z,96704.25
2019-04-21T06:59:06.332Z,96699.68
2019-04-21T07:01:36.051Z,96698.55
2019-04-21T07:06:30.575Z,96694.44
2019-04-21T07:09:10.233Z,96694.95
2019-04-21T07:11:21.406Z,96697.61
2019-04-21T07:13:54.711Z,96693.80
2019-04-21T07:16:25.716Z,96697.81
2019-04-21T07:19:01.376Z,96689.35
2019-04-21T07:21:23.508Z,96696.14
2019-04-21T07:23:57.211Z,96694.66
2019-04-21T07:26:19.419Z,96693.86
2019-04-21T07:28:51.044Z,96691.84
2019-04-21T07:31:18.495Z,96698.33
2019-04-21T07:33:53.967Z,96693.49
2019-04-21T07:36:20.025Z,96694.97
2019-04-21T07:38:41.205Z,96692.59
2019-04-21T07:41:05.599Z,96693.39
2019-04-21T07:43:30.022Z,96694.68
2019-04-21T07:45:58.526Z,96692.81
2019-04-21T07:48:37.715Z,96685.47
2019-04-21T07:51:18.834Z,96691.61
2019-04-21T07:56:09.447Z,96688.85
2019-04-21T07:58:53.907Z,96681.49
2019-04-21T08:03:46.799Z,96673.81
2019-04-21T08:06:22.790Z,96667.61
2019-04-21T08:08:40.741Z,96673.20
2019-04-21T08:11:10.874Z,96670.77
2019-04-21T08:13:51.796Z,96670.02
2019-04-21T08:16:10.567Z,96671.91
2019-04-21T08:21:04.353Z,96668.11
2019-04-21T08:23:31.924Z,96664.72
2019-04-21T08:28:35.500Z,96666.00
2019-04-21T08:30:55.474Z,96664.72
2019-04-21T08:33:33.718Z,96661.16
2019-04-21T08:36:14.437Z,96663.41
2019-04-21T08:38:20.328Z,96666.12
2019-04-21T08:40:59.069Z,96664.73
2019-04-21T08:43:27.729Z,96658.23
2019-04-21T08:45:57.267Z,96645.11
2019-04-21T08:48:18.276Z,96653.89
2019-04-21T08:50:44.267Z,96649.72
2019-04-21T08:53:14.646Z,96649.90
2019-04-21T08:55:49.276Z,96652.38
2019-04-21T08:58:25.663Z,96648.91
2019-04-21T09:01:01.084Z,96648.34
2019-04-21T09:03:43.334Z,96653.16
2019-04-21T09:06:17.489Z,96640.18
2019-04-21T09:08:42.279Z,96639.07
2019-04-21T09:11:09.730Z,96634.83
2019-04-21T09:13:37.206Z,96640.55
2019-04-21T09:15:59.431Z,96629.89
2019-04-21T09:18:24.092Z,96629.00
2019-04-21T09:20:58.554Z,96629.23
2019-04-21T09:23:25.630Z,96624.78
2019-04-21T09:25:58.833Z,96622.67
2019-04-21T09:28:24.129Z,96620.39
2019-04-21T09:30:41.617Z,96620.16
2019-04-21T09:33:02.385Z,96616.87
2019-04-21T09:35:29.218Z,96594.54
2019-04-21T09:38:03.010Z,96608.32
2019-04-21T09:40:30.111Z,96603.92
2019-04-21T09:42:57.482Z,96602.77
2019-04-21T09:45:22.535Z,96600.87
2019-04-21T09:47:59.081Z,96601.01
2019-04-21T09:50:19.856Z,96601.84
2019-04-21T09:52:54.199Z,96596.02
2019-04-21T09:55:19.600Z,96594.27
2019-04-21T09:57:51.598Z,96594.41
2019-04-21T10:00:18.467Z,96591.52
2019-04-21T10:02:51.629Z,96582.57
2019-04-21T10:05:09.991Z,96582.70
2019-04-21T10:07:40.528Z,96586.97
2019-04-21T10:10:06.058Z,96588.63
2019-04-21T10:12:33.554Z,96585.50
2019-04-21T10:14:59.945Z,96579.42
2019-04-21T10:17:28.115Z,96582.08
2019-04-21T10:19:55.092Z,96576.80
2019-04-21T10:22:21.454Z,96567.98
2019-04-21T10:24:48.795Z,96566.80
2019-04-21T10:27:15.341Z,96565.44
2019-04-21T10:29:44.558Z,96558.44
2019-04-21T10:32:09.551Z,96562.20
2019-04-21T10:34:36.793Z,96557.80
2019-04-21T10:37:03.402Z,96556.83
2019-04-21T10:39:29.663Z,96553.38
2019-04-21T10:41:57.212Z,96542.75
2019-04-21T10:44:23.572Z,96540.20
2019-04-21T10:46:51.831Z,96537.83
2019-04-21T10:49:18.983Z,96537.12
2019-04-21T10:51:46.637Z,96543.95
2019-04-21T10:54:13.691Z,96530.89
2019-04-21T10:56:43.435Z,96531.04
2019-04-21T10:59:08.246Z,96530.00
2019-04-21T11:01:34.770Z,96523.59
2019-04-21T11:04:03.083Z,96523.53
2019-04-21T11:06:30.870Z,96521.64
2019-04-21T11:08:59.576Z,96515.99
2019-04-21T11:11:25.928Z,96522.27
2019-04-21T11:13:52.627Z,96518.97
2019-04-21T11:16:19.237Z,96511.78
2019-04-21T11:18:46.104Z,96512.14
2019-04-21T11:21:13.278Z,96505.05
2019-04-21T11:23:40.477Z,96497.14
2019-04-21T11:26:07.288Z,96491.24
2019-04-21T11:28:34.733Z,96489.06
2019-04-21T11:31:02.593Z,96482.20
2019-04-21T11:33:29.097Z,96487.41
2019-04-21T11:35:55.475Z,96475.82
2019-04-21T11:38:51.298Z,96478.56
2019-04-21T11:41:03.930Z,96470.52
2019-04-21T11:43:30.812Z,96475.39
2019-04-21T11:45:58.145Z,96470.39
2019-04-21T11:48:26.269Z,96462.66
2019-04-21T11:50:53.209Z,96464.48
2019-04-21T11:53:20.933Z,96466.59
2019-04-21T11:55:51.718Z,96463.66
2019-04-21T11:58:18.073Z,96466.27
2019-04-21T12:00:47.474Z,96459.05
2019-04-21T12:03:15.360Z,96455.41
2019-04-21T12:05:43.476Z,96452.29
2019-04-21T12:08:21.195Z,96448.56
2019-04-21T12:10:37.891Z,96450.16
2019-04-21T12:13:07.258Z,96442.61
2019-04-21T12:15:32.769Z,96437.91
2019-04-21T12:17:59.629Z,96430.14
2019-04-21T12:20:26.438Z,96427.78
2019-04-21T12:22:52.999Z,96428.25
2019-04-21T12:25:27.351Z,96426.51
2019-04-21T12:27:54.169Z,96423.97
2019-04-21T12:30:21.831Z,96415.46
2019-04-21T12:32:50.100Z,96413.80
2019-04-21T12:35:17.864Z,96409.55
2019-04-21T12:37:44.819Z,96409.69
2019-04-21T12:40:12.595Z,96391.28
2019-04-21T12:42:41.716Z,96396.87
2019-04-21T12:45:09.803Z,96389.30
2019-04-21T12:47:37.692Z,96385.47
2019-04-21T12:50:06.787Z,96384.25
2019-04-21T12:52:33.635Z,96372.35
2019-04-21T12:55:00.019Z,96376.95
2019-04-21T12:57:30.219Z,96374.47
2019-04-21T12:59:55.402Z,96368.91
2019-04-21T13:02:21.974Z,96366.52
2019-04-21T13:04:49.715Z,96368.11
2019-04-21T13:07:17.393Z,96360.71
2019-04-21T13:09:44.343Z,96359.86
2019-04-21T13:12:11.149Z,96362.06
2019-04-21T13:14:37.905Z,96351.59
2019-04-21T13:17:05.649Z,96349.94
2019-04-21T13:19:31.830Z,96343.69
2019-04-21T13:21:58.276Z,96343.50
2019-04-21T13:24:24.447Z,96337.30
2019-04-21T13:26:55.963Z,96328.84
2019-04-21T13:29:18.942Z,96294.13
2019-04-21T13:31:45.057Z,96294.13
2019-04-21T13:34:11.482Z,96320.08
2019-04-21T13:36:37.573Z,96321.27
2019-04-21T13:39:38.010Z,96311.48
2019-04-21T13:41:47.492Z,96302.25
2019-04-21T13:44:15.697Z,96299.72
2019-04-21T13:46:43.006Z,96297.77
2019-04-21T13:49:11.581Z,96285.84
2019-04-21T13:51:38.574Z,96291.73
2019-04-21T13:54:04.982Z,96283.09
2019-04-21T13:56:32.345Z,96284.19
2019-04-21T13:59:00.019Z,96283.72
2019-04-21T14:01:27.651Z,96276.21
2019-04-21T14:03:53.908Z,96276.75
2019-04-21T14:06:20.454Z,96269.79
2019-04-21T14:08:48.652Z,96270.94
2019-04-21T14:11:15.562Z,96269.81
2019-04-21T14:13:42.572Z,96273.23
2019-04-21T14:16:09.698Z,96266.16
2019-04-21T14:18:36.571Z,96266.28
2019-04-21T14:21:03.375Z,96261.92
2019-04-21T14:23:36.015Z,96252.60
2019-04-21T14:25:57.922Z,96252.83
2019-04-21T14:28:24.202Z,96252.04
2019-04-21T14:30:50.581Z,96257.97
2019-04-21T14:33:18.198Z,96251.91
2019-04-21T14:35:45.111Z,96246.23
2019-04-21T14:38:11.325Z,96246.20
2019-04-21T14:40:38.850Z,96243.97
2019-04-21T14:43:05.925Z,96247.55
2019-04-21T14:45:34.638Z,96245.26
2019-04-21T14:48:03.267Z,96253.58
2019-04-21T14:50:48.433Z,96248.39
2019-04-21T14:53:17.870Z,96245.03
2019-04-21T14:55:45.737Z,96242.27
2019-04-21T14:58:12.850Z,96245.22
2019-04-21T15:00:45.971Z,96241.84
2019-04-21T15:03:12.182Z,96238.27
2019-04-21T15:05:39.687Z,96228.06
2019-04-21T15:08:06.863Z,96225.78
2019-04-21T15:10:33.996Z,96231.39
2019-04-21T15:13:01.644Z,96225.88
2019-04-21T15:15:27.982Z,96221.23
2019-04-21T15:17:55.614Z,96214.77
2019-04-21T15:20:23.836Z,96222.57
2019-04-21T15:22:50.484Z,96212.59
2019-04-21T15:25:16.758Z,96213.66
2019-04-21T15:27:43.151Z,96210.98
2019-04-21T15:30:10.935Z,96212.81
2019-04-21T15:32:37.343Z,96209.00
2019-04-21T15:35:04.383Z,96206.34
2019-04-21T15:37:31.649Z,96206.94
2019-04-21T15:39:58.538Z,96204.86
2019-04-21T15:42:26.410Z,96204.80
2019-04-21T15:44:52.682Z,96204.14
2019-04-21T15:47:19.908Z,96195.83
2019-04-21T15:50:01.175Z,96199.34
2019-04-21T15:52:22.357Z,96200.19
2019-04-21T15:54:50.294Z,96200.30
2019-04-21T15:57:19.684Z,96195.39
2019-04-21T15:59:50.734Z,96196.73
2019-04-21T16:02:36.926Z,96193.05
2019-04-21T16:05:06.632Z,96193.22
2019-04-21T16:07:34.009Z,96189.50
2019-04-21T16:10:02.030Z,96187.98
2019-04-21T16:12:29.777Z,96186.20
2019-04-21T16:14:56.514Z,96184.89
2019-04-21T16:17:23.531Z,96188.18
2019-04-21T16:19:52.073Z,96183.14
2019-04-21T16:22:18.831Z,96180.27
2019-04-21T16:24:46.070Z,96184.09
2019-04-21T16:27:13.334Z,96184.94
2019-04-21T16:29:39.579Z,96182.52
2019-04-21T16:32:06.957Z,96183.67
2019-04-21T16:34:42.745Z,96181.76
2019-04-21T16:37:01.537Z,96181.70
2019-04-21T16:39:29.457Z,96178.55
2019-04-21T16:41:56.335Z,96172.70
2019-04-21T16:44:23.158Z,96169.43
2019-04-21T16:46:49.650Z,96166.00
2019-04-21T16:49:15.946Z,96175.71
2019-04-21T16:51:42.509Z,96165.67
2019-04-21T16:54:10.698Z,96168.97
2019-04-21T16:56:39.645Z,96161.89
2019-04-21T16:59:08.542Z,96163.19
2019-04-21T17:01:36.362Z,96157.52
2019-04-21T17:04:04.486Z,96159.13
2019-04-21T17:06:31.205Z,96155.59
2019-04-21T17:08:59.018Z,96156.15
2019-04-21T17:11:29.454Z,96157.47
2019-04-21T17:13:54.231Z,96159.30
2019-04-21T17:16:49.511Z,96157.94
2019-04-21T17:19:00.574Z,96161.27
2019-04-21T17:21:19.270Z,96163.45
2019-04-21T17:23:46.454Z,96161.36
2019-04-21T17:26:13.216Z,96158.98
2019-04-21T17:28:40.624Z,96162.30
2019-04-21T17:31:08.474Z,96158.26
2019-04-21T17:33:35.508Z,96164.44
2019-04-21T17:36:03.021Z,96160.30
2019-04-21T17:38:30.126Z,96164.38
2019-04-21T17:41:09.328Z,96165.94
2019-04-21T17:43:25.776Z,96155.02
2019-04-21T17:45:53.214Z,96158.89
2019-04-21T17:48:21.456Z,96159.25
2019-04-21T17:50:56.626Z,96157.64
2019-04-21T17:53:38.200Z,96157.64
2019-04-21T17:56:19.414Z,96166.27
2019-04-21T17:58:49.284Z,96161.77
2019-04-21T18:01:19.371Z,96165.63
2019-04-21T18:03:56.926Z,96169.36
2019-04-21T18:06:05.289Z,96170.00
2019-04-21T18:08:43.050Z,96176.11
2019-04-21T18:11:01.205Z,96176.44
2019-04-21T18:13:22.674Z,96172.83
2019-04-21T18:15:55.805Z,96170.47
2019-04-21T18:18:14.916Z,96177.89
2019-04-21T18:20:46.157Z,96175.82
2019-04-21T18:23:43.915Z,96174.19
2019-04-21T18:26:07.129Z,96181.48
2019-04-21T18:28:28.488Z,96168.50
2019-04-21T18:30:56.769Z,96178.81
2019-04-21T18:33:29.936Z,96180.13
2019-04-21T18:35:58.587Z,96179.05
2019-04-21T18:39:00.149Z,96182.73
2019-04-21T18:41:13.358Z,96184.97
2019-04-21T18:44:21.292Z,96180.65
2019-04-21T18:46:55.575Z,96177.19
2019-04-21T18:49:06.745Z,96188.05
2019-04-21T18:51:58.681Z,96193.22
2019-04-21T18:54:36.026Z,96189.24
2019-04-21T18:56:57.629Z,96197.20
2019-04-21T18:59:14.427Z,96196.84
2019-04-21T19:01:49.821Z,96198.37
2019-04-21T19:04:14.361Z,96194.95
2019-04-21T19:06:51.672Z,96196.66
2019-04-21T19:09:32.523Z,96200.45
2019-04-21T19:11:53.486Z,96199.98
2019-04-21T19:21:46.998Z,96198.27
2019-04-21T19:24:25.327Z,96197.68
2019-04-21T19:26:52.105Z,96197.37
2019-04-21T19:29:22.789Z,96193.59
2019-04-21T19:31:44.684Z,96193.83
2019-04-21T19:34:03.502Z,96193.23
2019-04-21T19:36:21.549Z,96193.78
2019-04-21T19:38:58.283Z,96192.34
2019-04-21T19:41:32.480Z,96198.06
2019-04-21T19:44:02.689Z,96193.97
2019-04-21T19:46:28.081Z,96197.04
2019-04-21T19:49:05.509Z,96189.19
2019-04-21T19:51:24.866Z,96194.45
2019-04-21T19:53:50.441Z,96188.16
2019-04-21T19:56:05.960Z,96188.53
2019-04-21T19:58:38.051Z,96187.75
2019-04-21T20:01:01.602Z,96184.65
2019-04-21T20:03:28.541Z,96183.68
2019-04-21T20:06:06.009Z,96184.05
2019-04-21T20:08:36.459Z,96178.80
2019-04-21T20:11:10.430Z,96179.99
2019-04-21T20:13:56.953Z,96174.15
2019-04-21T20:16:10.676Z,96175.83
2019-04-21T20:18:26.070Z,96172.28
2019-04-21T20:20:45.889Z,96167.94
2019-04-21T20:23:18.054Z,96170.28
2019-04-21T20:25:48.476Z,96164.65
2019-04-21T20:28:17.354Z,96169.97
2019-04-21T20:30:56.036Z,96169.00
2019-04-21T20:33:42.897Z,96163.88
2019-04-21T20:38:15.671Z,96162.95
2019-04-21T20:40:44.090Z,96162.45
2019-04-21T20:43:16.505Z,96160.52
2019-04-21T20:45:49.420Z,96162.91
2019-04-21T20:47:56.150Z,96153.83
2019-04-21T20:50:33.347Z,96151.89
2019-04-21T20:53:06.014Z,96153.75
2019-04-21T20:55:29.269Z,96148.93
2019-04-21T20:57:58.033Z,96147.60
2019-04-21T21:00:30.144Z,96150.13
2019-04-21T21:03:04.196Z,96143.84
2019-04-21T21:05:27.479Z,96144.02
2019-04-21T21:08:05.143Z,96144.37
2019-04-21T21:10:31.540Z,96144.19
2019-04-21T21:12:57.513Z,96138.36
2019-04-21T21:15:18.335Z,96138.45
2019-04-21T21:18:01.529Z,96134.20
2019-04-21T21:20:27.873Z,96135.78
2019-04-21T21:22:47.820Z,96135.79
2019-04-21T21:25:25.838Z,96138.97
2019-04-21T21:27:42.052Z,96135.86
2019-04-21T21:30:14.589Z,96136.03
2019-04-21T21:32:42.882Z,96133.52
2019-04-21T21:35:13.145Z,96132.02
2019-04-21T21:37:41.031Z,96128.04
2019-04-21T21:40:10.654Z,96130.38
2019-04-21T21:42:25.687Z,96121.75
2019-04-21T21:44:50.474Z,96121.93
2019-04-21T21:47:31.974Z,96118.78
2019-04-21T21:49:55.439Z,96123.08
2019-04-21T21:52:22.198Z,96118.12
2019-04-21T21:54:40.014Z,96117.77
2019-04-21T21:57:06.569Z,96124.09
2019-04-21T21:59:36.479Z,96120.95
2019-04-21T22:02:03.146Z,96116.45
2019-04-21T22:04:32.445Z,96116.63
2019-04-21T22:07:04.644Z,96111.98
2019-04-21T22:09:26.416Z,96117.42
2019-04-21T22:11:56.701Z,96113.66
2019-04-21T22:14:25.953Z,96115.69
2019-04-21T22:17:07.637Z,96115.55
2019-04-21T22:19:36.727Z,96110.94
2019-04-21T22:22:07.727Z,96113.27
2019-04-21T22:24:36.592Z,96116.28
2019-04-21T22:26:43.334Z,96106.33
2019-04-21T22:29:09.756Z,96111.81
2019-04-21T22:31:39.246Z,96105.87
2019-04-21T22:34:07.567Z,96102.23
2019-04-21T22:36:44.457Z,96094.63
2019-04-21T22:39:20.777Z,96093.48
2019-04-21T22:41:40.516Z,96094.31
2019-04-21T22:44:00.959Z,96090.69
2019-04-21T22:46:28.584Z,96086.56
2019-04-21T22:49:00.909Z,96084.40
2019-04-21T22:51:30.220Z,96087.89
2019-04-21T22:53:54.301Z,96089.21
2019-04-21T22:56:25.582Z,96089.56
2019-04-21T22:58:48.301Z,96083.42
2019-04-21T23:01:20.109Z,96087.56
2019-04-21T23:03:50.238Z,96087.56
2019-04-21T23:06:19.267Z,96084.77
2019-04-21T23:08:43.578Z,96082.81
2019-04-21T23:11:11.924Z,96095.43
2019-04-21T23:13:38.636Z,96085.34
2019-04-21T23:16:07.571Z,96087.84
2019-04-21T23:18:46.376Z,96096.16
2019-04-21T23:21:16.331Z,96093.18
2019-04-21T23:23:54.104Z,96092.85
2019-04-21T23:26:18.244Z,96084.09
2019-04-21T23:28:46.681Z,96086.92
2019-04-21T23:31:11.102Z,96087.61
2019-04-21T23:33:23.866Z,96087.62
2019-04-21T23:36:00.972Z,96080.00
2019-04-21T23:38:26.573Z,96077.18
2019-04-21T23:40:54.298Z,96078.82
2019-04-21T23:43:20.599Z,96078.50
2019-04-21T23:45:45.314Z,96077.52
2019-04-21T23:48:27.161Z,96072.55
2019-04-21T23:50:50.450Z,96072.58
2019-04-21T23:53:07.877Z,96064.65
2019-04-21T23:55:35.001Z,96069.93
2019-04-21T23:58:07.013Z,96062.48
